sensor_id;sensor_type;location;lat;lon;timestamp;pressure;altitude;pressure_sealevel;temperature;humidity
47742;BME280;33504;52.066;6.096;2023-03-01T00:00:04;103113.77;;;1.98;35.31
47742;BME280;33504;52.066;6.096;2023-03-01T00:02:32;103114.88;;;2.39;35.29
47742;BME280;33504;52.066;6.096;2023-03-01T00:04:59;103116.38;;;2.09;35.33
47742;BME280;33504;52.066;6.096;2023-03-01T00:07:25;103119.02;;;2.06;35.37
47742;BME280;33504;52.066;6.096;2023-03-01T00:09:52;103116.09;;;1.99;35.46
47742;BME280;33504;52.066;6.096;2023-03-01T00:12:20;103109.99;;;2.14;35.48
47742;BME280;33504;52.066;6.096;2023-03-01T00:14:47;103106.39;;;2.11;35.55
47742;BME280;33504;52.066;6.096;2023-03-01T00:17:14;103104.27;;;2.04;35.30
47742;BME280;33504;52.066;6.096;2023-03-01T00:19:41;103103.79;;;2.01;35.36
47742;BME280;33504;52.066;6.096;2023-03-01T00:22:08;103102.06;;;1.73;35.41
47742;BME280;33504;52.066;6.096;2023-03-01T00:24:35;103098.57;;;1.90;35.53
47742;BME280;33504;52.066;6.096;2023-03-01T00:27:02;103100.72;;;1.85;35.41
47742;BME280;33504;52.066;6.096;2023-03-01T00:29:29;103099.19;;;1.66;35.70
47742;BME280;33504;52.066;6.096;2023-03-01T00:31:56;103094.31;;;1.47;36.36
47742;BME280;33504;52.066;6.096;2023-03-01T00:34:23;103098.74;;;1.47;36.24
47742;BME280;33504;52.066;6.096;2023-03-01T00:36:50;103095.03;;;1.46;36.62
47742;BME280;33504;52.066;6.096;2023-03-01T00:39:17;103097.87;;;1.47;36.34
47742;BME280;33504;52.066;6.096;2023-03-01T00:41:44;103096.02;;;1.42;36.61
47742;BME280;33504;52.066;6.096;2023-03-01T00:44:12;103097.11;;;1.46;36.40
47742;BME280;33504;52.066;6.096;2023-03-01T00:46:38;103098.04;;;1.92;36.52
47742;BME280;33504;52.066;6.096;2023-03-01T00:49:05;103096.35;;;1.42;36.48
47742;BME280;33504;52.066;6.096;2023-03-01T00:51:33;103093.24;;;1.36;36.58
47742;BME280;33504;52.066;6.096;2023-03-01T00:54:02;103086.48;;;1.29;36.77
47742;BME280;33504;52.066;6.096;2023-03-01T00:56:30;103082.97;;;1.82;36.81
47742;BME280;33504;52.066;6.096;2023-03-01T00:58:58;103081.10;;;1.63;36.83
47742;BME280;33504;52.066;6.096;2023-03-01T01:01:26;103080.77;;;1.40;36.84
47742;BME280;33504;52.066;6.096;2023-03-01T01:03:56;103075.01;;;1.45;36.76
47742;BME280;33504;52.066;6.096;2023-03-01T01:06:25;103071.49;;;1.52;36.80
47742;BME280;33504;52.066;6.096;2023-03-01T01:08:53;103069.79;;;1.82;36.66
47742;BME280;33504;52.066;6.096;2023-03-01T01:11:21;103067.48;;;1.38;36.66
47742;BME280;33504;52.066;6.096;2023-03-01T01:13:49;103068.92;;;1.55;36.69
47742;BME280;33504;52.066;6.096;2023-03-01T01:16:18;103067.83;;;1.52;36.71
47742;BME280;33504;52.066;6.096;2023-03-01T01:18:45;103065.97;;;1.53;36.78
47742;BME280;33504;52.066;6.096;2023-03-01T01:21:14;103060.90;;;1.46;36.82
47742;BME280;33504;52.066;6.096;2023-03-01T01:23:43;103058.29;;;1.39;36.90
47742;BME280;33504;52.066;6.096;2023-03-01T01:26:12;103060.55;;;1.32;36.92
47742;BME280;33504;52.066;6.096;2023-03-01T01:28:40;103056.51;;;1.28;37.17
47742;BME280;33504;52.066;6.096;2023-03-01T01:31:07;103052.42;;;1.50;37.03
47742;BME280;33504;52.066;6.096;2023-03-01T01:33:36;103050.90;;;1.19;36.87
47742;BME280;33504;52.066;6.096;2023-03-01T01:36:04;103053.75;;;1.17;36.68
47742;BME280;33504;52.066;6.096;2023-03-01T01:38:31;103050.69;;;1.15;36.87
47742;BME280;33504;52.066;6.096;2023-03-01T01:40:59;103048.18;;;1.43;36.72
47742;BME280;33504;52.066;6.096;2023-03-01T01:43:28;103051.67;;;1.19;36.78
47742;BME280;33504;52.066;6.096;2023-03-01T01:45:58;103049.48;;;1.18;36.72
47742;BME280;33504;52.066;6.096;2023-03-01T01:48:31;103047.63;;;1.14;36.88
47742;BME280;33504;52.066;6.096;2023-03-01T01:51:01;103048.58;;;1.35;37.15
47742;BME280;33504;52.066;6.096;2023-03-01T01:53:28;103050.49;;;1.32;37.35
47742;BME280;33504;52.066;6.096;2023-03-01T01:55:57;103051.38;;;1.28;37.43
47742;BME280;33504;52.066;6.096;2023-03-01T01:58:27;103051.66;;;1.44;37.54
47742;BME280;33504;52.066;6.096;2023-03-01T02:00:56;103051.79;;;0.86;37.58
47742;BME280;33504;52.066;6.096;2023-03-01T02:03:27;103049.56;;;1.05;37.70
47742;BME280;33504;52.066;6.096;2023-03-01T02:06:00;103047.92;;;0.79;37.72
47742;BME280;33504;52.066;6.096;2023-03-01T02:08:32;103054.10;;;1.02;37.70
47742;BME280;33504;52.066;6.096;2023-03-01T02:11:02;103046.35;;;1.13;37.90
47742;BME280;33504;52.066;6.096;2023-03-01T02:13:31;103041.40;;;0.95;38.16
47742;BME280;33504;52.066;6.096;2023-03-01T02:16:02;103041.66;;;1.09;37.96
47742;BME280;33504;52.066;6.096;2023-03-01T02:18:29;103036.26;;;0.79;38.06
47742;BME280;33504;52.066;6.096;2023-03-01T02:21:10;103028.28;;;1.00;38.02
47742;BME280;33504;52.066;6.096;2023-03-01T02:23:41;103032.97;;;0.56;38.09
47742;BME280;33504;52.066;6.096;2023-03-01T02:26:14;103033.08;;;0.87;38.01
47742;BME280;33504;52.066;6.096;2023-03-01T02:28:44;103027.06;;;1.13;38.03
47742;BME280;33504;52.066;6.096;2023-03-01T02:31:15;103027.05;;;0.97;37.96
47742;BME280;33504;52.066;6.096;2023-03-01T02:33:44;103027.54;;;0.72;37.96
47742;BME280;33504;52.066;6.096;2023-03-01T02:36:15;103025.41;;;0.99;38.02
47742;BME280;33504;52.066;6.096;2023-03-01T02:38:44;103029.89;;;0.98;37.92
47742;BME280;33504;52.066;6.096;2023-03-01T02:41:15;103025.90;;;0.98;38.07
47742;BME280;33504;52.066;6.096;2023-03-01T02:43:42;103027.77;;;0.95;37.91
47742;BME280;33504;52.066;6.096;2023-03-01T02:46:17;103020.29;;;0.90;38.26
47742;BME280;33504;52.066;6.096;2023-03-01T02:48:47;103019.74;;;0.67;37.94
47742;BME280;33504;52.066;6.096;2023-03-01T02:51:26;103015.53;;;0.94;37.72
47742;BME280;33504;52.066;6.096;2023-03-01T02:54:04;103018.09;;;1.19;37.38
47742;BME280;33504;52.066;6.096;2023-03-01T02:56:35;103021.92;;;1.17;37.25
47742;BME280;33504;52.066;6.096;2023-03-01T02:59:03;103018.10;;;0.89;37.31
47742;BME280;33504;52.066;6.096;2023-03-01T03:01:30;103014.17;;;1.10;37.37
47742;BME280;33504;52.066;6.096;2023-03-01T03:04:00;103004.99;;;0.87;37.30
47742;BME280;33504;52.066;6.096;2023-03-01T03:06:26;103001.22;;;0.61;37.36
47742;BME280;33504;52.066;6.096;2023-03-01T03:08:53;103005.43;;;0.85;37.60
47742;BME280;33504;52.066;6.096;2023-03-01T03:11:20;103005.21;;;1.08;37.72
47742;BME280;33504;52.066;6.096;2023-03-01T03:13:47;103002.54;;;0.87;37.75
47742;BME280;33504;52.066;6.096;2023-03-01T03:16:14;103002.10;;;1.09;37.86
47742;BME280;33504;52.066;6.096;2023-03-01T03:18:41;103001.01;;;0.86;37.73
47742;BME280;33504;52.066;6.096;2023-03-01T03:21:09;102997.67;;;0.59;37.82
47742;BME280;33504;52.066;6.096;2023-03-01T03:23:36;102997.07;;;0.85;37.90
47742;BME280;33504;52.066;6.096;2023-03-01T03:26:04;102996.15;;;0.57;38.03
47742;BME280;33504;52.066;6.096;2023-03-01T03:28:33;102995.01;;;1.02;37.94
47742;BME280;33504;52.066;6.096;2023-03-01T03:31:00;102997.57;;;0.55;38.13
47742;BME280;33504;52.066;6.096;2023-03-01T03:33:27;102995.66;;;1.02;38.03
47742;BME280;33504;52.066;6.096;2023-03-01T03:35:55;102993.54;;;0.97;38.07
47742;BME280;33504;52.066;6.096;2023-03-01T03:38:22;102991.36;;;0.68;38.15
47742;BME280;33504;52.066;6.096;2023-03-01T03:40:51;102992.51;;;0.89;38.29
47742;BME280;33504;52.066;6.096;2023-03-01T03:43:20;102994.21;;;0.87;38.11
47742;BME280;33504;52.066;6.096;2023-03-01T03:45:49;102994.65;;;0.83;38.17
47742;BME280;33504;52.066;6.096;2023-03-01T03:48:17;102994.38;;;0.81;38.24
47742;BME280;33504;52.066;6.096;2023-03-01T03:50:48;102988.10;;;0.78;38.22
47742;BME280;33504;52.066;6.096;2023-03-01T03:53:16;102986.90;;;0.24;38.16
47742;BME280;33504;52.066;6.096;2023-03-01T03:55:44;102986.42;;;0.68;38.26
47742;BME280;33504;52.066;6.096;2023-03-01T03:58:11;102988.83;;;0.63;38.35
47742;BME280;33504;52.066;6.096;2023-03-01T04:00:40;102987.25;;;0.09;38.13
47742;BME280;33504;52.066;6.096;2023-03-01T04:03:09;102986.27;;;0.32;37.98
47742;BME280;33504;52.066;6.096;2023-03-01T04:05:38;102988.56;;;0.49;37.99
47742;BME280;33504;52.066;6.096;2023-03-01T04:08:05;102989.60;;;0.49;37.91
47742;BME280;33504;52.066;6.096;2023-03-01T04:10:36;102985.45;;;0.43;37.98
47742;BME280;33504;52.066;6.096;2023-03-01T04:13:04;102983.87;;;0.35;38.26
47742;BME280;33504;52.066;6.096;2023-03-01T04:15:31;102987.04;;;0.54;38.39
47742;BME280;33504;52.066;6.096;2023-03-01T04:17:58;102986.55;;;0.29;38.52
47742;BME280;33504;52.066;6.096;2023-03-01T04:20:27;102982.07;;;0.26;38.75
47742;BME280;33504;52.066;6.096;2023-03-01T04:22:58;102986.99;;;0.21;38.66
47742;BME280;33504;52.066;6.096;2023-03-01T04:25:25;102986.60;;;0.16;38.85
47742;BME280;33504;52.066;6.096;2023-03-01T04:27:52;102985.84;;;0.35;38.79
47742;BME280;33504;52.066;6.096;2023-03-01T04:30:20;102983.38;;;0.15;38.94
47742;BME280;33504;52.066;6.096;2023-03-01T04:32:47;102980.93;;;0.12;38.92
47742;BME280;33504;52.066;6.096;2023-03-01T04:35:14;102980.87;;;0.08;38.97
47742;BME280;33504;52.066;6.096;2023-03-01T04:37:41;102979.07;;;0.06;38.99
47742;BME280;33504;52.066;6.096;2023-03-01T04:40:09;102976.12;;;0.03;39.09
47742;BME280;33504;52.066;6.096;2023-03-01T04:42:36;102968.97;;;-0.02;39.11
47742;BME280;33504;52.066;6.096;2023-03-01T04:45:04;102966.24;;;-0.05;39.32
47742;BME280;33504;52.066;6.096;2023-03-01T04:47:31;102961.33;;;0.12;39.37
47742;BME280;33504;52.066;6.096;2023-03-01T04:49:59;102965.75;;;0.14;39.36
47742;BME280;33504;52.066;6.096;2023-03-01T04:52:26;102967.28;;;-0.09;39.38
47742;BME280;33504;52.066;6.096;2023-03-01T04:54:53;102963.30;;;0.15;39.40
47742;BME280;33504;52.066;6.096;2023-03-01T04:57:20;102962.97;;;0.12;39.35
47742;BME280;33504;52.066;6.096;2023-03-01T04:59:47;102955.71;;;0.11;39.35
47742;BME280;33504;52.066;6.096;2023-03-01T05:02:15;102952.33;;;0.11;39.37
47742;BME280;33504;52.066;6.096;2023-03-01T05:04:42;102945.23;;;0.11;39.43
47742;BME280;33504;52.066;6.096;2023-03-01T05:07:09;102943.92;;;0.09;39.43
47742;BME280;33504;52.066;6.096;2023-03-01T05:09:36;102942.29;;;0.09;39.36
47742;BME280;33504;52.066;6.096;2023-03-01T05:12:04;102939.56;;;-0.17;39.12
47742;BME280;33504;52.066;6.096;2023-03-01T05:14:32;102936.45;;;-0.16;38.88
47742;BME280;33504;52.066;6.096;2023-03-01T05:16:59;102937.16;;;0.08;38.72
47742;BME280;33504;52.066;6.096;2023-03-01T05:19:26;102932.14;;;0.03;38.56
47742;BME280;33504;52.066;6.096;2023-03-01T05:21:53;102930.99;;;0.02;38.68
47742;BME280;33504;52.066;6.096;2023-03-01T05:24:20;102923.79;;;0.01;38.54
47742;BME280;33504;52.066;6.096;2023-03-01T05:26:47;102920.03;;;-0.01;38.75
47742;BME280;33504;52.066;6.096;2023-03-01T05:29:14;102918.01;;;-0.24;38.91
47742;BME280;33504;52.066;6.096;2023-03-01T05:31:41;102914.19;;;-0.02;39.11
47742;BME280;33504;52.066;6.096;2023-03-01T05:34:08;102918.06;;;-0.06;38.99
47742;BME280;33504;52.066;6.096;2023-03-01T05:36:36;102913.48;;;-0.06;39.24
47742;BME280;33504;52.066;6.096;2023-03-01T05:39:03;102914.08;;;-0.28;39.25
47742;BME280;33504;52.066;6.096;2023-03-01T05:41:30;102917.02;;;-0.09;39.30
47742;BME280;33504;52.066;6.096;2023-03-01T05:43:57;102917.08;;;-0.11;39.38
47742;BME280;33504;52.066;6.096;2023-03-01T05:46:24;102914.46;;;-0.15;39.44
47742;BME280;33504;52.066;6.096;2023-03-01T05:48:51;102917.95;;;-0.14;39.42
47742;BME280;33504;52.066;6.096;2023-03-01T05:51:18;102914.24;;;0.10;39.35
47742;BME280;33504;52.066;6.096;2023-03-01T05:53:46;102907.15;;;-0.41;39.33
47742;BME280;33504;52.066;6.096;2023-03-01T05:56:12;102904.80;;;-0.24;39.40
47742;BME280;33504;52.066;6.096;2023-03-01T05:58:39;102904.42;;;-0.27;39.47
47742;BME280;33504;52.066;6.096;2023-03-01T06:01:11;102908.07;;;-0.30;39.55
47742;BME280;33504;52.066;6.096;2023-03-01T06:03:39;102908.01;;;-0.05;39.56
47742;BME280;33504;52.066;6.096;2023-03-01T06:06:06;102904.20;;;-0.32;39.57
47742;BME280;33504;52.066;6.096;2023-03-01T06:08:34;102903.10;;;-0.35;39.57
47742;BME280;33504;52.066;6.096;2023-03-01T06:11:00;102903.65;;;-0.12;39.67
47742;BME280;33504;52.066;6.096;2023-03-01T06:13:27;102907.73;;;-0.15;39.75
47742;BME280;33504;52.066;6.096;2023-03-01T06:15:54;102909.42;;;-0.42;39.84
47742;BME280;33504;52.066;6.096;2023-03-01T06:18:22;102913.53;;;-0.77;40.10
47742;BME280;33504;52.066;6.096;2023-03-01T06:20:52;102913.71;;;-0.36;39.85
47742;BME280;33504;52.066;6.096;2023-03-01T06:23:19;102916.49;;;-0.35;39.84
47742;BME280;33504;52.066;6.096;2023-03-01T06:25:46;102915.18;;;-0.62;39.92
47742;BME280;33504;52.066;6.096;2023-03-01T06:28:14;102914.53;;;-0.58;39.90
47742;BME280;33504;52.066;6.096;2023-03-01T06:30:41;102912.79;;;-0.31;39.93
47742;BME280;33504;52.066;6.096;2023-03-01T06:33:09;102912.68;;;-0.29;40.03
47742;BME280;33504;52.066;6.096;2023-03-01T06:35:36;102909.25;;;-0.49;39.96
47742;BME280;33504;52.066;6.096;2023-03-01T06:38:05;102905.88;;;-0.42;40.06
47742;BME280;33504;52.066;6.096;2023-03-01T06:40:32;102903.43;;;-0.13;39.90
47742;BME280;33504;52.066;6.096;2023-03-01T06:42:59;102902.23;;;-0.07;39.92
47742;BME280;33504;52.066;6.096;2023-03-01T06:45:27;102908.02;;;-0.29;39.88
47742;BME280;33504;52.066;6.096;2023-03-01T06:48:01;102907.69;;;-0.00;39.89
47742;BME280;33504;52.066;6.096;2023-03-01T06:50:28;102912.33;;;-0.22;39.98
47742;BME280;33504;52.066;6.096;2023-03-01T06:52:55;102916.97;;;-0.15;40.01
47742;BME280;33504;52.066;6.096;2023-03-01T06:55:22;102915.50;;;-0.10;39.84
47742;BME280;33504;52.066;6.096;2023-03-01T06:57:54;102922.53;;;-0.08;39.83
47742;BME280;33504;52.066;6.096;2023-03-01T07:00:22;102926.35;;;-0.26;39.92
47742;BME280;33504;52.066;6.096;2023-03-01T07:02:49;102924.06;;;0.05;39.92
47742;BME280;33504;52.066;6.096;2023-03-01T07:05:16;102923.52;;;-0.13;39.78
47742;BME280;33504;52.066;6.096;2023-03-01T07:07:44;102922.59;;;0.13;39.71
47742;BME280;33504;52.066;6.096;2023-03-01T07:10:12;102922.86;;;0.22;39.62
47742;BME280;33504;52.066;6.096;2023-03-01T07:12:38;102920.61;;;0.22;39.50
47742;BME280;33504;52.066;6.096;2023-03-01T07:15:08;102919.61;;;0.41;39.33
47742;BME280;33504;52.066;6.096;2023-03-01T07:17:36;102916.81;;;0.50;39.23
47742;BME280;33504;52.066;6.096;2023-03-01T07:20:03;102916.47;;;0.59;39.14
47742;BME280;33504;52.066;6.096;2023-03-01T07:22:31;102919.24;;;0.48;39.08
47742;BME280;33504;52.066;6.096;2023-03-01T07:24:58;102920.54;;;0.77;39.07
47742;BME280;33504;52.066;6.096;2023-03-01T07:27:25;102923.39;;;0.98;38.97
47742;BME280;33504;52.066;6.096;2023-03-01T07:29:52;102920.27;;;0.92;38.92
47742;BME280;33504;52.066;6.096;2023-03-01T07:32:20;102918.49;;;1.44;38.72
47742;BME280;33504;52.066;6.096;2023-03-01T07:34:47;102917.96;;;1.54;38.45
47742;BME280;33504;52.066;6.096;2023-03-01T07:37:14;102910.68;;;1.79;38.10
47742;BME280;33504;52.066;6.096;2023-03-01T07:39:41;102912.43;;;2.01;37.97
47742;BME280;33504;52.066;6.096;2023-03-01T07:42:08;102910.90;;;2.07;37.81
47742;BME280;33504;52.066;6.096;2023-03-01T07:44:35;102915.79;;;2.39;37.46
47742;BME280;33504;52.066;6.096;2023-03-01T07:47:03;102919.28;;;2.51;37.16
47742;BME280;33504;52.066;6.096;2023-03-01T07:49:30;102921.41;;;3.15;36.68
47742;BME280;33504;52.066;6.096;2023-03-01T07:51:58;102917.30;;;3.92;35.95
47742;BME280;33504;52.066;6.096;2023-03-01T07:54:25;102913.34;;;4.47;35.09
47742;BME280;33504;52.066;6.096;2023-03-01T07:56:52;102912.89;;;5.14;34.08
47742;BME280;33504;52.066;6.096;2023-03-01T07:59:19;102912.00;;;5.97;33.47
47742;BME280;33504;52.066;6.096;2023-03-01T08:01:46;102906.51;;;6.12;32.26
47742;BME280;33504;52.066;6.096;2023-03-01T08:04:14;102908.36;;;6.52;31.63
47742;BME280;33504;52.066;6.096;2023-03-01T08:06:41;102915.10;;;7.07;31.11
47742;BME280;33504;52.066;6.096;2023-03-01T08:09:08;102916.23;;;7.50;30.49
47742;BME280;33504;52.066;6.096;2023-03-01T08:11:35;102919.15;;;7.77;30.31
47742;BME280;33504;52.066;6.096;2023-03-01T08:14:02;102922.93;;;7.87;29.89
47742;BME280;33504;52.066;6.096;2023-03-01T08:16:29;102920.81;;;8.08;29.48
47742;BME280;33504;52.066;6.096;2023-03-01T08:18:56;102921.91;;;8.25;28.85
47742;BME280;33504;52.066;6.096;2023-03-01T08:21:24;102926.68;;;8.39;29.02
47742;BME280;33504;52.066;6.096;2023-03-01T08:23:51;102920.81;;;7.96;28.61
47742;BME280;33504;52.066;6.096;2023-03-01T08:26:20;102917.06;;;8.32;28.79
47742;BME280;33504;52.066;6.096;2023-03-01T08:28:48;102917.14;;;8.79;28.92
47742;BME280;33504;52.066;6.096;2023-03-01T08:31:19;102911.72;;;8.58;28.80
47742;BME280;33504;52.066;6.096;2023-03-01T08:33:54;102912.01;;;8.82;28.69
47742;BME280;33504;52.066;6.096;2023-03-01T08:36:22;102903.90;;;9.03;28.41
47742;BME280;33504;52.066;6.096;2023-03-01T08:38:50;102900.71;;;9.02;28.21
47742;BME280;33504;52.066;6.096;2023-03-01T08:41:17;102897.83;;;9.58;27.92
47742;BME280;33504;52.066;6.096;2023-03-01T08:43:45;102891.79;;;9.75;28.37
47742;BME280;33504;52.066;6.096;2023-03-01T08:46:13;102895.85;;;10.01;28.13
47742;BME280;33504;52.066;6.096;2023-03-01T08:48:41;102893.21;;;10.06;27.63
47742;BME280;33504;52.066;6.096;2023-03-01T08:51:09;102894.91;;;10.09;27.92
47742;BME280;33504;52.066;6.096;2023-03-01T08:53:37;102893.01;;;10.37;27.50
47742;BME280;33504;52.066;6.096;2023-03-01T08:56:05;102893.25;;;10.61;27.59
47742;BME280;33504;52.066;6.096;2023-03-01T08:58:33;102888.90;;;11.17;27.00
47742;BME280;33504;52.066;6.096;2023-03-01T09:01:01;102885.09;;;11.25;27.07
47742;BME280;33504;52.066;6.096;2023-03-01T09:03:33;102883.79;;;11.04;25.86
47742;BME280;33504;52.066;6.096;2023-03-01T09:06:02;102885.05;;;10.95;25.66
47742;BME280;33504;52.066;6.096;2023-03-01T09:08:29;102882.67;;;11.35;25.31
47742;BME280;33504;52.066;6.096;2023-03-01T09:10:57;102877.51;;;11.16;24.76
47742;BME280;33504;52.066;6.096;2023-03-01T09:13:24;102872.51;;;11.16;25.04
47742;BME280;33504;52.066;6.096;2023-03-01T09:15:51;102874.08;;;11.21;25.02
47742;BME280;33504;52.066;6.096;2023-03-01T09:18:18;102871.50;;;11.61;24.62
47742;BME280;33504;52.066;6.096;2023-03-01T09:20:46;102869.81;;;12.02;24.21
47742;BME280;33504;52.066;6.096;2023-03-01T09:23:13;102875.62;;;12.12;24.19
47742;BME280;33504;52.066;6.096;2023-03-01T09:25:40;102872.49;;;12.17;23.81
47742;BME280;33504;52.066;6.096;2023-03-01T09:28:07;102869.77;;;12.42;23.77
47742;BME280;33504;52.066;6.096;2023-03-01T09:30:34;102867.99;;;12.37;23.60
47742;BME280;33504;52.066;6.096;2023-03-01T09:33:01;102865.48;;;12.79;23.34
47742;BME280;33504;52.066;6.096;2023-03-01T09:35:29;102863.25;;;12.75;22.88
47742;BME280;33504;52.066;6.096;2023-03-01T09:37:56;102859.51;;;13.04;22.74
47742;BME280;33504;52.066;6.096;2023-03-01T09:40:26;102858.14;;;12.72;22.45
47742;BME280;33504;52.066;6.096;2023-03-01T09:43:01;102858.72;;;12.83;22.40
47742;BME280;33504;52.066;6.096;2023-03-01T09:45:34;102854.11;;;12.95;22.11
47742;BME280;33504;52.066;6.096;2023-03-01T09:48:04;102850.74;;;12.80;22.11
47742;BME280;33504;52.066;6.096;2023-03-01T09:50:35;102841.11;;;13.39;21.52
47742;BME280;33504;52.066;6.096;2023-03-01T09:53:09;102833.52;;;13.40;21.49
47742;BME280;33504;52.066;6.096;2023-03-01T09:55:43;102830.67;;;13.23;21.12
47742;BME280;33504;52.066;6.096;2023-03-01T09:58:29;102830.16;;;13.45;21.23
47742;BME280;33504;52.066;6.096;2023-03-01T10:01:02;102825.47;;;13.99;20.83
47742;BME280;33504;52.066;6.096;2023-03-01T10:03:41;102821.99;;;14.17;21.08
47742;BME280;33504;52.066;6.096;2023-03-01T10:06:13;102819.10;;;14.22;20.78
47742;BME280;33504;52.066;6.096;2023-03-01T10:08:45;102822.96;;;14.66;20.30
47742;BME280;33504;52.066;6.096;2023-03-01T10:11:20;102822.57;;;14.64;20.31
47742;BME280;33504;52.066;6.096;2023-03-01T10:13:54;102823.81;;;14.94;20.11
47742;BME280;33504;52.066;6.096;2023-03-01T10:16:27;102822.03;;;14.67;20.46
47742;BME280;33504;52.066;6.096;2023-03-01T10:18:59;102812.40;;;14.55;19.15
47742;BME280;33504;52.066;6.096;2023-03-01T10:21:27;102809.89;;;13.53;19.49
47742;BME280;33504;52.066;6.096;2023-03-01T10:23:55;102802.70;;;14.15;19.35
47742;BME280;33504;52.066;6.096;2023-03-01T10:26:37;102799.33;;;13.85;19.59
47742;BME280;33504;52.066;6.096;2023-03-01T10:29:07;102804.52;;;14.03;19.32
47742;BME280;33504;52.066;6.096;2023-03-01T10:31:39;102800.39;;;14.14;19.49
47742;BME280;33504;52.066;6.096;2023-03-01T10:34:12;102797.62;;;14.21;19.55
47742;BME280;33504;52.066;6.096;2023-03-01T10:36:41;102796.98;;;14.99;18.92
47742;BME280;33504;52.066;6.096;2023-03-01T10:39:16;102794.05;;;14.93;19.02
47742;BME280;33504;52.066;6.096;2023-03-01T10:42:01;102788.26;;;15.44;18.46
47742;BME280;33504;52.066;6.096;2023-03-01T10:44:46;102781.15;;;15.71;18.35
47742;BME280;33504;52.066;6.096;2023-03-01T10:47:17;102776.59;;;15.57;18.14
47742;BME280;33504;52.066;6.096;2023-03-01T10:50:02;102771.37;;;15.86;18.14
47742;BME280;33504;52.066;6.096;2023-03-01T10:52:33;102771.17;;;16.02;18.06
47742;BME280;33504;52.066;6.096;2023-03-01T10:55:04;102768.09;;;16.51;17.99
47742;BME280;33504;52.066;6.096;2023-03-01T10:57:50;102775.21;;;16.53;17.55
47742;BME280;33504;52.066;6.096;2023-03-01T11:00:32;102772.12;;;16.37;17.52
47742;BME280;33504;52.066;6.096;2023-03-01T11:03:11;102772.59;;;16.73;17.18
47742;BME280;33504;52.066;6.096;2023-03-01T11:05:56;102771.30;;;17.17;16.92
47742;BME280;33504;52.066;6.096;2023-03-01T11:08:35;102766.06;;;17.47;16.51
47742;BME280;33504;52.066;6.096;2023-03-01T11:11:07;102770.17;;;16.88;16.64
47742;BME280;33504;52.066;6.096;2023-03-01T11:13:51;102771.26;;;17.32;16.45
47742;BME280;33504;52.066;6.096;2023-03-01T11:16:26;102770.16;;;17.36;16.73
47742;BME280;33504;52.066;6.096;2023-03-01T11:19:00;102771.93;;;18.12;16.64
47742;BME280;33504;52.066;6.096;2023-03-01T11:21:30;102766.06;;;17.57;15.82
47742;BME280;33504;52.066;6.096;2023-03-01T11:24:00;102765.95;;;17.33;16.23
47742;BME280;33504;52.066;6.096;2023-03-01T11:26:30;102766.18;;;17.08;16.18
47742;BME280;33504;52.066;6.096;2023-03-01T11:29:04;102764.60;;;16.53;16.75
47742;BME280;33504;52.066;6.096;2023-03-01T11:31:34;102761.01;;;16.77;16.23
47742;BME280;33504;52.066;6.096;2023-03-01T11:34:06;102760.32;;;17.18;16.61
47742;BME280;33504;52.066;6.096;2023-03-01T11:36:36;102762.72;;;17.29;16.60
47742;BME280;33504;52.066;6.096;2023-03-01T11:39:17;102753.03;;;17.51;16.49
47742;BME280;33504;52.066;6.096;2023-03-01T11:41:48;102749.76;;;17.94;16.14
47742;BME280;33504;52.066;6.096;2023-03-01T11:44:21;102751.22;;;18.35;16.08
47742;BME280;33504;52.066;6.096;2023-03-01T11:47:03;102744.44;;;17.43;16.21
47742;BME280;33504;52.066;6.096;2023-03-01T11:49:49;102748.31;;;18.06;16.13
47742;BME280;33504;52.066;6.096;2023-03-01T11:52:28;102746.77;;;17.78;16.07
47742;BME280;33504;52.066;6.096;2023-03-01T11:55:12;102742.46;;;18.50;15.78
47742;BME280;33504;52.066;6.096;2023-03-01T11:58:02;102752.04;;;17.88;16.00
47742;BME280;33504;52.066;6.096;2023-03-01T12:00:44;102746.32;;;18.00;16.07
47742;BME280;33504;52.066;6.096;2023-03-01T12:03:26;102742.52;;;17.80;16.10
47742;BME280;33504;52.066;6.096;2023-03-01T12:06:03;102746.81;;;18.06;15.54
47742;BME280;33504;52.066;6.096;2023-03-01T12:08:40;102745.02;;;18.09;14.97
47742;BME280;33504;52.066;6.096;2023-03-01T12:11:17;102742.25;;;17.69;15.36
47742;BME280;33504;52.066;6.096;2023-03-01T12:13:58;102740.93;;;17.91;15.31
47742;BME280;33504;52.066;6.096;2023-03-01T12:16:46;102741.47;;;17.33;15.52
47742;BME280;33504;52.066;6.096;2023-03-01T12:19:48;102739.15;;;17.53;16.27
47742;BME280;33504;52.066;6.096;2023-03-01T12:22:28;102737.05;;;17.27;16.66
47742;BME280;33504;52.066;6.096;2023-03-01T12:25:12;102733.55;;;16.81;16.55
47742;BME280;33504;52.066;6.096;2023-03-01T12:28:02;102732.75;;;16.31;16.82
47742;BME280;33504;52.066;6.096;2023-03-01T12:30:39;102724.00;;;15.88;16.81
47742;BME280;33504;52.066;6.096;2023-03-01T12:33:20;102711.05;;;15.48;17.31
47742;BME280;33504;52.066;6.096;2023-03-01T12:36:47;102712.01;;;15.73;17.20
47742;BME280;33504;52.066;6.096;2023-03-01T12:39:33;102707.01;;;15.49;17.03
47742;BME280;33504;52.066;6.096;2023-03-01T12:42:09;102695.41;;;15.35;17.33
47742;BME280;33504;52.066;6.096;2023-03-01T12:44:55;102700.06;;;15.42;17.29
47742;BME280;33504;52.066;6.096;2023-03-01T12:47:36;102694.52;;;15.66;17.08
47742;BME280;33504;52.066;6.096;2023-03-01T12:50:16;102691.70;;;14.86;17.83
47742;BME280;33504;52.066;6.096;2023-03-01T12:52:50;102686.02;;;15.07;17.76
47742;BME280;33504;52.066;6.096;2023-03-01T12:55:26;102682.55;;;15.48;17.38
47742;BME280;33504;52.066;6.096;2023-03-01T12:58:02;102675.22;;;15.36;17.18
47742;BME280;33504;52.066;6.096;2023-03-01T13:00:35;102670.64;;;15.62;17.09
47742;BME280;33504;52.066;6.096;2023-03-01T13:03:15;102663.60;;;15.68;17.02
47742;BME280;33504;52.066;6.096;2023-03-01T13:05:59;102665.41;;;15.13;17.53
47742;BME280;33504;52.066;6.096;2023-03-01T13:08:36;102660.22;;;15.17;17.60
47742;BME280;33504;52.066;6.096;2023-03-01T13:11:15;102652.47;;;15.47;17.34